PORT of RAS LAFFAN

Država: Qatar Država: Qatar (QA)
Latitude/Longitude: 25.902555° / 51.61554° Prikaži na mapi Prikaži na mapi
Vrijeme:  UTC +3
UN/LOCODE: QARLF
Brod je Trenutno u Luci: 18
Očekivani dolasci: 7

Posljednji dolasci i odlasci


Ime broda
Dolazak (UTC)
Dolazak (LT)
Isplovljenje (UTC)
Isplovljenje (LT)
Vessel Type: Jahta, jedrilica  HALUL 22 2014-09-18 22:06:00 2014-09-19 01:06:00 2014-09-19 12:22:00 2014-09-19 15:22:00
Vessel Type: Tegljač,pilot itd.  SCOUT 2014-09-17 10:19:00 2014-09-17 13:19:00 2014-09-19 10:31:00 2014-09-19 13:31:00
Vessel Type: Putnički brodovi  HALUL 41 2014-09-19 10:09:00 2014-09-19 13:09:00 2014-09-19 10:23:00 2014-09-19 13:23:00
Vessel Type: Tegljač,pilot itd.  ZAKRA 2 2014-09-19 10:05:00 2014-09-19 13:05:00
Vessel Type: Tegljač,pilot itd.  ZAKRA 2 2014-09-19 04:54:00 2014-09-19 07:54:00 2014-09-19 10:02:00 2014-09-19 13:02:00
Vessel Type: Tankeri  CAPTAIN MARKOS NL 2014-09-17 21:46:00 2014-09-18 00:46:00 2014-09-19 10:02:00 2014-09-19 13:02:00
Vessel Type: Putnički brodovi  HALUL 41 2014-09-19 07:35:00 2014-09-19 10:35:00 2014-09-19 09:50:00 2014-09-19 12:50:00
Vessel Type: Tankeri  ONAIZA 2014-09-18 05:13:00 2014-09-18 08:13:00 2014-09-19 08:10:00 2014-09-19 11:10:00
Vessel Type: Tankeri  AL KHARAITIYAT 2014-09-18 05:13:00 2014-09-18 08:13:00 2014-09-19 08:10:00 2014-09-19 11:10:00
Vessel Type: Putnički brodovi  HALUL 41 2014-09-19 06:52:00 2014-09-19 09:52:00 2014-09-19 07:28:00 2014-09-19 10:28:00

Očekivani dolasci


Ime broda
Scheduled Arrival (UTC)
Dolazak planiran (lokalno)
Približno vrijeme dolaska (UTC)
Približno vrijeme dolaska (lokalno)
Vessel Type: Tankeri  HYUNDAI TECHNOPIA 2014-09-19 03:00:00 2014-09-19 06:00:00
Vessel Type: Tankeri  M.STAR 2014-09-19 16:00:00 2014-09-19 19:00:00
Vessel Type: Tankeri  LNG SWIFT 2014-09-19 21:01:00 2014-09-20 00:01:00
Vessel Type: Tankeri  DL IRIS 2014-09-20 10:00:00 2014-09-20 13:00:00 2014-09-20 05:17:00 2014-09-20 08:17:00
Vessel Type: Tankeri  DUHAIL 2014-09-20 17:00:00 2014-09-20 20:00:00
Vessel Type: Tankeri  GAS VISION 2014-09-24 00:00:00 2014-09-24 03:00:00 2014-09-24 12:14:00 2014-09-24 15:14:00
Vessel Type: Tankeri  AL RAYYAN 2014-09-26 23:01:00 2014-09-27 02:01:00 2014-09-26 19:48:00 2014-09-26 22:48:00

Wind Forecast


    
Vrijeme (UTC)
Brzina
Direction
Temperature
2014-09-19 12:00:00 14 knots 350° 37°C
2014-09-19 15:00:00 13 knots 341° 34°C
2014-09-19 18:00:00 10 knots 328° 33°C
2014-09-19 21:00:00 11 knots 314° 33°C
2014-09-20 00:00:00 13 knots 303° 33°C
2014-09-20 03:00:00 13 knots 301° 33°C
2014-09-20 06:00:00 13 knots 307° 36°C
2014-09-20 09:00:00 15 knots 322° 38°C
2014-09-20 12:00:00 14 knots 325° 38°C
2014-09-20 15:00:00 10 knots 329° 35°C
2014-09-20 18:00:00 9 knots 316° 34°C
2014-09-20 21:00:00 8 knots 299° 34°C
2014-09-21 00:00:00 9 knots 304° 34°C
2014-09-21 03:00:00 10 knots 287° 33°C
2014-09-21 06:00:00 8 knots 292° 36°C
2014-09-21 09:00:00 9 knots 318° 38°C
2014-09-21 12:00:00 10 knots 338° 39°C

NO_PHOTO

No Photos for this port. Be the first to upload one!